createdAt,value
2022-08-04T00:01:08.475Z,83.20
2022-08-04T00:03:51.027Z,83.10
2022-08-04T00:06:37.016Z,83.50
2022-08-04T00:09:17.372Z,83.60
2022-08-04T00:11:50.557Z,83.80
2022-08-04T00:14:24.439Z,83.90
2022-08-04T00:16:54.429Z,84.10
2022-08-04T00:19:33.945Z,84.10
2022-08-04T00:22:05.743Z,84.40
2022-08-04T00:24:37.858Z,84.30
2022-08-04T00:27:07.921Z,84.40
2022-08-04T00:29:39.597Z,84.70
2022-08-04T00:32:12.286Z,84.70
2022-08-04T00:34:43.290Z,85.60
2022-08-04T00:37:12.229Z,85.00
2022-08-04T00:39:43.102Z,85.30
2022-08-04T00:42:58.518Z,85.50
2022-08-04T00:46:36.632Z,86.30
2022-08-04T00:49:48.338Z,87.20
2022-08-04T00:52:37.277Z,86.40
2022-08-04T00:55:30.790Z,87.10
2022-08-04T00:58:36.857Z,86.90
2022-08-04T01:01:07.731Z,87.30
2022-08-04T01:03:52.058Z,87.20
2022-08-04T01:06:36.453Z,87.40
2022-08-04T01:09:29.193Z,87.50
2022-08-04T01:12:23.823Z,87.80
2022-08-04T01:15:07.580Z,88.00
2022-08-04T01:17:54.940Z,88.20
2022-08-04T01:20:27.647Z,88.20
2022-08-04T01:23:45.658Z,88.40
2022-08-04T01:26:57.308Z,89.10
2022-08-04T01:29:44.398Z,90.00
2022-08-04T01:32:25.905Z,89.00
2022-08-04T01:35:03.719Z,89.20
2022-08-04T01:37:56.974Z,89.50
2022-08-04T01:40:29.671Z,90.10
2022-08-04T01:43:02.849Z,89.90
2022-08-04T01:45:32.870Z,90.00
2022-08-04T01:48:05.107Z,90.10
2022-08-04T01:50:37.276Z,90.30
2022-08-04T01:53:05.701Z,90.40
2022-08-04T01:55:55.084Z,90.50
2022-08-04T01:58:25.979Z,90.60
2022-08-04T02:01:02.512Z,90.70
2022-08-04T02:04:18.654Z,90.70
2022-08-04T02:06:42.168Z,90.80
2022-08-04T02:09:22.933Z,90.80
2022-08-04T02:12:04.834Z,90.90
2022-08-04T02:14:45.509Z,90.90
2022-08-04T02:17:23.786Z,91.00
2022-08-04T02:20:08.204Z,91.10
2022-08-04T02:22:48.836Z,91.30
2022-08-04T02:25:26.549Z,91.20
2022-08-04T02:28:12.650Z,91.30
2022-08-04T02:30:53.925Z,91.40
2022-08-04T02:33:32.775Z,91.50
2022-08-04T02:36:05.366Z,91.50
2022-08-04T02:39:01.440Z,91.70
2022-08-04T02:41:32.762Z,92.00
2022-08-04T02:44:05.156Z,92.00
2022-08-04T02:46:36.134Z,91.90
2022-08-04T02:49:08.258Z,92.00
2022-08-04T02:51:41.344Z,92.00
2022-08-04T02:54:10.452Z,92.10
2022-08-04T02:56:40.613Z,92.10
2022-08-04T02:59:12.237Z,92.20
2022-08-04T03:01:57.003Z,92.20
2022-08-04T03:04:46.796Z,92.30
2022-08-04T03:07:59.148Z,92.40
2022-08-04T03:11:31.184Z,92.70
2022-08-04T03:14:29.109Z,93.20
2022-08-04T03:17:52.470Z,92.60
2022-08-04T03:20:53.793Z,92.80
2022-08-04T03:24:03.877Z,93.10
2022-08-04T03:27:10.657Z,93.30
2022-08-04T03:30:14.251Z,93.10
2022-08-04T03:33:35.594Z,93.30
2022-08-04T03:37:04.482Z,93.60
2022-08-04T03:40:27.386Z,93.70
2022-08-04T03:43:59.970Z,94.00
2022-08-04T03:47:19.209Z,94.30
2022-08-04T03:50:41.326Z,94.20
2022-08-04T03:53:44.485Z,94.20
2022-08-04T03:56:42.962Z,94.30
2022-08-04T04:00:07.527Z,94.30
2022-08-04T04:03:44.092Z,94.60
2022-08-04T04:06:53.974Z,94.80
2022-08-04T04:10:01.240Z,94.80
2022-08-04T04:13:22.194Z,94.80
2022-08-04T04:16:15.080Z,95.20
2022-08-04T04:19:09.671Z,95.10
2022-08-04T04:21:59.658Z,95.10
2022-08-04T04:24:55.274Z,95.10
2022-08-04T04:27:40.912Z,95.40
2022-08-04T04:30:15.274Z,95.30
2022-08-04T04:33:08.715Z,95.40
2022-08-04T04:35:58.474Z,95.70
2022-08-04T04:38:45.707Z,95.80
2022-08-04T04:41:41.498Z,95.90
2022-08-04T04:45:11.573Z,96.00
2022-08-04T04:48:08.428Z,96.40
2022-08-04T04:50:59.590Z,96.30
2022-08-04T04:53:37.138Z,96.60
2022-08-04T04:56:15.992Z,96.60
2022-08-04T04:58:45.655Z,96.80
2022-08-04T05:01:56.861Z,97.00
2022-08-04T05:05:34.496Z,97.40
2022-08-04T05:09:15.344Z,97.60
2022-08-04T05:14:37.279Z,97.80
2022-08-04T05:15:33.334Z,97.50
2022-08-04T05:18:04.101Z,97.80
2022-08-04T05:20:47.349Z,97.90
2022-08-04T05:23:20.828Z,98.50
2022-08-04T05:25:59.227Z,98.30
2022-08-04T05:28:37.093Z,98.30
2022-08-04T05:31:13.861Z,98.50
2022-08-04T05:33:51.070Z,98.70
2022-08-04T05:36:39.935Z,98.70
2022-08-04T05:39:15.750Z,98.90
2022-08-04T05:41:55.178Z,99.00
2022-08-04T05:44:27.381Z,99.10
2022-08-04T05:46:59.666Z,99.10
2022-08-04T05:49:30.413Z,99.30
2022-08-04T05:52:04.033Z,99.40
2022-08-04T05:54:37.015Z,99.70
2022-08-04T05:57:07.469Z,99.90
2022-08-04T05:59:46.571Z,99.90
2022-08-04T06:02:19.146Z,99.90
2022-08-04T06:04:52.143Z,99.90
2022-08-04T06:07:20.749Z,99.90
2022-08-04T06:09:49.439Z,99.90
2022-08-04T06:12:25.731Z,99.90
2022-08-04T06:14:59.572Z,99.90
2022-08-04T06:18:33.622Z,99.90
2022-08-04T06:20:34.619Z,99.90
2022-08-04T06:23:08.539Z,99.90
2022-08-04T06:25:44.518Z,99.90
2022-08-04T06:28:14.622Z,99.90
2022-08-04T06:30:50.068Z,99.90
2022-08-04T06:33:27.622Z,99.90
2022-08-04T06:35:59.303Z,99.90
2022-08-04T06:38:30.817Z,99.90
2022-08-04T06:41:03.702Z,99.90
2022-08-04T06:43:34.113Z,99.90
2022-08-04T06:46:12.664Z,99.90
2022-08-04T06:48:50.893Z,99.90
2022-08-04T06:51:27.184Z,99.90
2022-08-04T06:54:01.622Z,99.90
2022-08-04T06:56:32.485Z,99.90
2022-08-04T06:59:03.074Z,99.90
2022-08-04T07:01:33.684Z,99.90
2022-08-04T07:04:09.442Z,99.90
2022-08-04T07:06:37.950Z,99.90
2022-08-04T07:09:08.193Z,99.90
2022-08-04T07:11:39.453Z,99.90
2022-08-04T07:14:16.502Z,99.90
2022-08-04T07:16:47.473Z,99.90
2022-08-04T07:19:19.152Z,99.90
2022-08-04T07:22:16.283Z,99.30
2022-08-04T07:24:41.062Z,99.00
2022-08-04T07:27:11.185Z,98.80
2022-08-04T07:29:42.795Z,98.60
2022-08-04T07:32:13.792Z,98.30
2022-08-04T07:34:44.358Z,98.10
2022-08-04T07:37:22.050Z,97.80
2022-08-04T07:40:09.840Z,97.70
2022-08-04T07:42:38.608Z,97.80
2022-08-04T07:45:10.640Z,97.80
2022-08-04T07:48:05.220Z,97.70
2022-08-04T07:50:35.593Z,97.40
2022-08-04T07:53:54.348Z,97.10
2022-08-04T07:55:53.243Z,96.60
2022-08-04T07:58:21.574Z,96.30
2022-08-04T08:00:50.973Z,95.80
2022-08-04T08:03:21.682Z,95.60
2022-08-04T08:06:31.156Z,95.20
2022-08-04T08:08:45.887Z,94.80
2022-08-04T08:11:17.441Z,94.60
2022-08-04T08:13:49.274Z,94.00
2022-08-04T08:16:21.323Z,93.60
2022-08-04T08:18:55.140Z,93.20
2022-08-04T08:21:26.333Z,93.00
2022-08-04T08:23:58.737Z,92.60
2022-08-04T08:26:27.829Z,92.20
2022-08-04T08:28:57.187Z,91.90
2022-08-04T08:31:56.570Z,91.80
2022-08-04T08:34:27.630Z,91.20
2022-08-04T08:37:09.589Z,91.10
2022-08-04T08:39:43.919Z,90.70
2022-08-04T08:42:53.418Z,90.70
2022-08-04T08:46:48.433Z,89.90
2022-08-04T08:50:03.097Z,88.20
2022-08-04T08:53:00.744Z,87.90
2022-08-04T08:56:10.191Z,88.90
2022-08-04T08:59:04.617Z,86.20
2022-08-04T09:05:23.521Z,86.00
2022-08-04T09:08:15.617Z,85.70
2022-08-04T09:10:50.977Z,85.90
2022-08-04T09:13:28.289Z,86.60
2022-08-04T09:16:16.878Z,86.10
2022-08-04T09:18:55.753Z,84.30
2022-08-04T09:21:35.736Z,84.80
2022-08-04T09:24:35.504Z,83.90
2022-08-04T09:27:20.927Z,83.40
2022-08-04T09:30:03.304Z,82.60
2022-08-04T09:33:12.666Z,82.60
2022-08-04T09:36:10.852Z,79.30
2022-08-04T09:38:52.445Z,81.10
2022-08-04T09:41:49.361Z,80.80
2022-08-04T09:44:53.108Z,79.70
2022-08-04T09:47:40.732Z,80.50
2022-08-04T09:50:35.276Z,79.90
2022-08-04T09:53:37.997Z,77.80
2022-08-04T09:56:38.897Z,76.50
2022-08-04T09:59:27.708Z,78.00
2022-08-04T10:02:08.453Z,78.60
2022-08-04T10:04:45.273Z,78.70
2022-08-04T10:07:42.980Z,77.90
2022-08-04T10:10:38.440Z,72.40
2022-08-04T10:13:35.820Z,76.80
2022-08-04T10:16:48.029Z,75.00
2022-08-04T10:19:28.552Z,75.40
2022-08-04T10:22:28.354Z,75.50
2022-08-04T10:26:03.301Z,73.20
2022-08-04T10:28:33.965Z,73.90
2022-08-04T10:31:14.410Z,70.60
2022-08-04T10:34:02.268Z,71.30
2022-08-04T10:37:04.955Z,72.40
2022-08-04T10:40:07.502Z,71.20
2022-08-04T10:42:50.917Z,71.50
2022-08-04T10:45:28.375Z,72.00
2022-08-04T10:48:13.217Z,71.90
2022-08-04T10:50:55.478Z,71.00
2022-08-04T10:53:30.299Z,71.40
2022-08-04T10:56:07.324Z,70.80
2022-08-04T10:58:49.053Z,70.20
2022-08-04T11:02:00.963Z,69.20
2022-08-04T11:04:27.187Z,69.10
2022-08-04T11:06:59.696Z,69.50
2022-08-04T11:09:31.032Z,69.10
2022-08-04T11:12:08.068Z,69.20
2022-08-04T11:14:44.489Z,69.40
2022-08-04T11:17:30.113Z,68.60
2022-08-04T11:20:33.466Z,65.80
2022-08-04T11:23:06.904Z,68.10
2022-08-04T11:25:51.939Z,67.90
2022-08-04T11:28:33.053Z,68.00
2022-08-04T11:31:07.586Z,67.90
2022-08-04T11:33:48.909Z,67.30
2022-08-04T11:36:26.942Z,65.60
2022-08-04T11:39:16.656Z,66.30
2022-08-04T11:41:54.534Z,65.80
2022-08-04T11:44:33.578Z,65.90
2022-08-04T11:47:09.088Z,65.50
2022-08-04T11:49:56.443Z,65.80
2022-08-04T11:52:28.032Z,65.40
2022-08-04T11:54:58.765Z,64.80
2022-08-04T11:57:35.703Z,64.80
2022-08-04T12:00:10.993Z,64.50
2022-08-04T12:03:07.553Z,63.70
2022-08-04T12:05:52.651Z,61.30
2022-08-04T12:08:44.387Z,61.70
2022-08-04T12:11:27.817Z,61.30
2022-08-04T12:14:10.047Z,62.40
2022-08-04T12:16:56.814Z,62.40
2022-08-04T12:19:46.186Z,62.10
2022-08-04T12:22:31.560Z,62.70
2022-08-04T12:25:06.883Z,63.10
2022-08-04T12:27:43.198Z,63.30
2022-08-04T12:31:01.274Z,63.20
2022-08-04T12:33:11.775Z,63.20
2022-08-04T12:36:10.231Z,62.60
2022-08-04T12:38:55.367Z,61.80
2022-08-04T12:41:30.663Z,62.00
2022-08-04T12:44:33.283Z,62.70
2022-08-04T12:47:26.571Z,62.50
2022-08-04T12:50:00.294Z,62.80
2022-08-04T12:52:52.068Z,63.00
2022-08-04T12:55:26.310Z,63.20
2022-08-04T12:57:56.435Z,63.60
2022-08-04T13:00:31.320Z,63.70
2022-08-04T13:03:10.484Z,64.10
2022-08-04T13:05:42.713Z,63.90
2022-08-04T13:08:13.449Z,64.40
2022-08-04T13:10:47.841Z,65.20
2022-08-04T13:13:20.254Z,65.60
2022-08-04T13:16:02.815Z,66.00
2022-08-04T13:18:36.755Z,67.00
2022-08-04T13:21:22.894Z,67.50
2022-08-04T13:24:22.899Z,68.90
2022-08-04T13:27:09.375Z,68.60
2022-08-04T13:29:59.338Z,69.10
2022-08-04T13:32:31.897Z,69.40
2022-08-04T13:35:04.624Z,69.50
2022-08-04T13:37:38.861Z,69.90
2022-08-04T13:40:15.159Z,70.00
2022-08-04T13:42:49.221Z,70.30
2022-08-04T13:45:23.146Z,70.60
2022-08-04T13:47:59.835Z,70.90
2022-08-04T13:50:48.654Z,71.20
2022-08-04T13:53:22.060Z,71.30
2022-08-04T13:55:51.171Z,71.50
2022-08-04T13:58:39.050Z,71.60
2022-08-04T14:01:16.813Z,72.20
2022-08-04T14:03:57.209Z,72.50
2022-08-04T14:06:28.818Z,72.50
2022-08-04T14:09:01.133Z,72.90
2022-08-04T14:12:10.642Z,73.00
2022-08-04T14:14:30.134Z,73.10
2022-08-04T14:17:05.509Z,73.10
2022-08-04T14:19:59.950Z,73.50
2022-08-04T14:22:34.884Z,74.40
2022-08-04T14:25:15.699Z,73.90
2022-08-04T14:27:48.915Z,73.80
2022-08-04T14:30:28.100Z,73.70
2022-08-04T14:32:59.774Z,73.80
2022-08-04T14:36:01.462Z,73.60
2022-08-04T14:39:13.251Z,73.70
2022-08-04T14:41:51.241Z,73.90
2022-08-04T14:44:32.998Z,73.80
2022-08-04T14:47:14.759Z,73.60
2022-08-04T14:50:02.043Z,73.90
2022-08-04T14:52:35.909Z,73.90
2022-08-04T14:55:32.141Z,73.80
2022-08-04T14:58:36.946Z,73.90
2022-08-04T15:01:01.008Z,73.70
2022-08-04T15:03:50.739Z,73.70
2022-08-04T15:06:24.003Z,73.50
2022-08-04T15:08:57.865Z,73.20
2022-08-04T15:11:28.720Z,73.40
2022-08-04T15:13:59.555Z,73.50
2022-08-04T15:16:31.209Z,73.70
2022-08-04T15:19:02.191Z,73.80
2022-08-04T15:21:31.735Z,73.70
2022-08-04T15:24:00.825Z,73.50
2022-08-04T15:26:37.349Z,73.60
2022-08-04T15:29:16.727Z,73.50
2022-08-04T15:32:06.917Z,73.60
2022-08-04T15:34:48.402Z,73.70
2022-08-04T15:37:28.102Z,73.50
2022-08-04T15:40:08.105Z,73.40
2022-08-04T15:42:47.387Z,73.30
2022-08-04T15:45:23.745Z,73.60
2022-08-04T15:48:28.303Z,73.20
2022-08-04T15:51:14.790Z,72.70
2022-08-04T15:54:29.231Z,72.90
2022-08-04T15:57:03.711Z,72.70
2022-08-04T16:00:00.324Z,73.00
2022-08-04T16:02:46.824Z,72.70
2022-08-04T16:05:36.777Z,72.90
2022-08-04T16:08:19.046Z,73.40
2022-08-04T16:10:50.627Z,74.90
2022-08-04T16:13:27.392Z,74.40
2022-08-04T16:16:10.788Z,75.70
2022-08-04T16:18:43.926Z,76.40
2022-08-04T16:21:26.480Z,76.20
2022-08-04T16:24:20.129Z,77.00
2022-08-04T16:26:56.484Z,77.60
2022-08-04T16:29:39.051Z,76.90
2022-08-04T16:32:23.650Z,77.10
2022-08-04T16:35:04.630Z,77.30
2022-08-04T16:37:35.981Z,76.70
2022-08-04T16:40:38.772Z,76.50
2022-08-04T16:43:11.335Z,76.50
2022-08-04T16:45:47.518Z,75.80
2022-08-04T16:48:17.283Z,75.60
2022-08-04T16:51:04.576Z,75.50
2022-08-04T16:53:52.348Z,75.70
2022-08-04T16:56:35.602Z,76.00
2022-08-04T16:59:09.278Z,76.20
2022-08-04T17:01:38.916Z,77.20
2022-08-04T17:04:07.801Z,76.50
2022-08-04T17:06:39.152Z,76.70
2022-08-04T17:09:12.044Z,77.20
2022-08-04T17:11:42.377Z,77.30
2022-08-04T17:14:10.965Z,77.40
2022-08-04T17:16:42.667Z,77.50
2022-08-04T17:19:20.067Z,77.70
2022-08-04T17:22:02.888Z,78.00
2022-08-04T17:24:34.236Z,78.00
2022-08-04T17:28:06.185Z,77.70
2022-08-04T17:29:52.235Z,77.60
2022-08-04T17:32:23.271Z,77.50
2022-08-04T17:34:55.104Z,78.40
2022-08-04T17:37:52.636Z,77.80
2022-08-04T17:40:18.383Z,77.70
2022-08-04T17:44:02.785Z,77.80
2022-08-04T17:46:29.737Z,78.70
2022-08-04T17:49:10.422Z,78.50
2022-08-04T17:52:01.613Z,77.90
2022-08-04T17:54:38.863Z,77.80
2022-08-04T17:57:19.876Z,77.70
2022-08-04T17:59:57.106Z,79.00
2022-08-04T18:02:33.029Z,78.40
2022-08-04T18:05:07.581Z,78.40
2022-08-04T18:08:37.980Z,78.60
2022-08-04T18:10:44.479Z,79.70
2022-08-04T18:13:23.166Z,79.70
2022-08-04T18:16:03.230Z,79.60
2022-08-04T18:18:31.597Z,80.80
2022-08-04T18:21:03.262Z,79.90
2022-08-04T18:23:33.698Z,80.20
2022-08-04T18:26:03.787Z,80.80
2022-08-04T18:28:33.224Z,80.60
2022-08-04T18:31:03.387Z,80.80
2022-08-04T18:33:39.917Z,81.00
2022-08-04T18:36:34.313Z,81.00
2022-08-04T18:39:13.440Z,81.10
2022-08-04T18:41:51.540Z,81.20
2022-08-04T18:44:32.163Z,81.60
2022-08-04T18:47:22.106Z,81.80
2022-08-04T18:50:40.101Z,82.00
2022-08-04T18:52:42.071Z,82.20
2022-08-04T18:55:56.093Z,82.40
2022-08-04T18:58:07.853Z,82.40
2022-08-04T19:00:45.365Z,82.50
2022-08-04T19:03:16.240Z,82.90
2022-08-04T19:05:44.786Z,83.20
2022-08-04T19:08:32.960Z,83.50
2022-08-04T19:11:36.834Z,83.80
2022-08-04T19:13:54.639Z,84.20
2022-08-04T19:16:28.489Z,84.40
2022-08-04T19:19:00.269Z,84.60
2022-08-04T19:22:01.220Z,84.80
2022-08-04T19:24:32.128Z,85.10
2022-08-04T19:27:06.827Z,85.50
2022-08-04T19:29:40.816Z,85.20
2022-08-04T19:32:14.411Z,85.30
2022-08-04T19:34:47.341Z,85.60
2022-08-04T19:37:58.337Z,86.00
2022-08-04T19:40:09.922Z,86.20
2022-08-04T19:42:38.479Z,87.10
2022-08-04T19:45:09.960Z,86.50
2022-08-04T19:48:17.556Z,86.70
2022-08-04T19:50:34.957Z,86.70
2022-08-04T19:53:18.999Z,86.70
2022-08-04T19:55:49.668Z,86.90
2022-08-04T19:58:25.879Z,87.20
2022-08-04T20:00:55.834Z,87.40
2022-08-04T20:04:10.212Z,87.60
2022-08-04T20:06:14.038Z,87.90
2022-08-04T20:08:48.075Z,88.30
2022-08-04T20:11:18.453Z,88.30
2022-08-04T20:13:54.208Z,88.60
2022-08-04T20:16:29.581Z,88.90
2022-08-04T20:19:03.661Z,89.00
2022-08-04T20:21:54.173Z,89.10
2022-08-04T20:24:41.458Z,89.70
2022-08-04T20:27:21.960Z,90.00
2022-08-04T20:30:10.617Z,90.20
2022-08-04T20:32:44.428Z,90.30
2022-08-04T20:35:25.736Z,90.20
2022-08-04T20:38:00.745Z,90.10
2022-08-04T20:40:30.048Z,90.20
2022-08-04T20:42:58.504Z,90.20
2022-08-04T20:45:55.889Z,90.10
2022-08-04T20:48:14.959Z,90.20
2022-08-04T20:50:48.578Z,90.40
2022-08-04T20:53:18.029Z,90.30
2022-08-04T20:55:55.133Z,90.30
2022-08-04T20:58:27.255Z,90.20
2022-08-04T21:00:57.249Z,90.30
2022-08-04T21:03:25.647Z,90.20
2022-08-04T21:06:13.770Z,90.20
2022-08-04T21:08:56.758Z,90.30
2022-08-04T21:11:32.460Z,90.40
2022-08-04T21:14:01.262Z,90.50
2022-08-04T21:16:55.764Z,90.50
2022-08-04T21:19:17.641Z,90.50
2022-08-04T21:21:53.203Z,90.60
2022-08-04T21:24:26.493Z,90.70
2022-08-04T21:26:57.277Z,90.60
2022-08-04T21:29:34.569Z,90.60
2022-08-04T21:32:04.680Z,90.70
2022-08-04T21:34:39.080Z,90.70
2022-08-04T21:37:10.275Z,90.80
2022-08-04T21:39:59.107Z,90.90
2022-08-04T21:42:30.439Z,90.90
2022-08-04T21:44:59.445Z,91.00
2022-08-04T21:47:45.628Z,91.20
2022-08-04T21:50:19.817Z,91.20
2022-08-04T21:52:49.848Z,91.30
2022-08-04T21:55:19.646Z,91.20
2022-08-04T21:57:49.376Z,91.30
2022-08-04T22:00:20.146Z,91.30
2022-08-04T22:02:53.592Z,91.30
2022-08-04T22:05:22.262Z,91.30
2022-08-04T22:07:51.704Z,91.20
2022-08-04T22:10:32.510Z,91.20
2022-08-04T22:13:06.971Z,91.20
2022-08-04T22:16:03.760Z,91.20
2022-08-04T22:18:24.493Z,91.30
2022-08-04T22:20:55.270Z,91.30
2022-08-04T22:23:24.279Z,91.30
2022-08-04T22:25:55.552Z,91.20
2022-08-04T22:28:28.084Z,91.40
2022-08-04T22:30:58.317Z,91.40
2022-08-04T22:33:55.044Z,91.40
2022-08-04T22:36:24.865Z,91.40
2022-08-04T22:39:04.352Z,91.40
2022-08-04T22:41:48.496Z,91.30
2022-08-04T22:44:24.513Z,91.30
2022-08-04T22:47:00.358Z,91.20
2022-08-04T22:49:31.489Z,91.20
2022-08-04T22:52:02.903Z,91.20
2022-08-04T22:54:38.157Z,91.20
2022-08-04T22:57:10.076Z,91.50
2022-08-04T22:59:42.862Z,91.20
2022-08-04T23:02:11.570Z,91.20
2022-08-04T23:04:42.815Z,91.20
2022-08-04T23:07:12.422Z,91.20
2022-08-04T23:09:50.145Z,91.40
2022-08-04T23:12:25.519Z,91.50
2022-08-04T23:14:55.172Z,91.60
2022-08-04T23:17:23.725Z,91.70
2022-08-04T23:19:57.653Z,91.70
2022-08-04T23:22:40.974Z,91.60
2022-08-04T23:25:15.746Z,91.60
2022-08-04T23:27:50.614Z,91.50
2022-08-04T23:30:21.744Z,91.50
2022-08-04T23:32:53.454Z,91.60
2022-08-04T23:35:22.469Z,91.50
2022-08-04T23:37:56.795Z,91.70
2022-08-04T23:40:33.294Z,91.50
2022-08-04T23:43:17.125Z,91.50
2022-08-04T23:46:07.266Z,91.50
2022-08-04T23:48:34.922Z,91.70
2022-08-04T23:51:15.063Z,91.80
2022-08-04T23:54:01.982Z,92.10
2022-08-04T23:56:32.951Z,92.40
2022-08-04T23:59:05.424Z,92.60
